sensor_id;sensor_type;location;lat;lon;timestamp;temperature;humidity
17495;DHT22;8864;51.970;4.614;2022-07-29T00:01:07;25.40;55.10
17495;DHT22;8864;51.970;4.614;2022-07-29T00:03:33;25.40;54.50
17495;DHT22;8864;51.970;4.614;2022-07-29T00:06:00;25.40;54.50
17495;DHT22;8864;51.970;4.614;2022-07-29T00:08:27;25.40;54.40
17495;DHT22;8864;51.970;4.614;2022-07-29T00:10:54;25.40;54.50
17495;DHT22;8864;51.970;4.614;2022-07-29T00:13:22;25.40;54.50
17495;DHT22;8864;51.970;4.614;2022-07-29T00:15:49;25.40;54.50
17495;DHT22;8864;51.970;4.614;2022-07-29T00:18:16;25.40;54.50
17495;DHT22;8864;51.970;4.614;2022-07-29T00:20:42;25.40;54.50
17495;DHT22;8864;51.970;4.614;2022-07-29T00:23:09;25.40;54.50
17495;DHT22;8864;51.970;4.614;2022-07-29T00:25:36;25.40;54.50
17495;DHT22;8864;51.970;4.614;2022-07-29T00:28:03;25.40;54.50
17495;DHT22;8864;51.970;4.614;2022-07-29T00:30:31;25.40;54.50
17495;DHT22;8864;51.970;4.614;2022-07-29T00:32:58;25.40;54.50
17495;DHT22;8864;51.970;4.614;2022-07-29T00:35:25;25.30;54.40
17495;DHT22;8864;51.970;4.614;2022-07-29T00:38:09;25.40;54.50
17495;DHT22;8864;51.970;4.614;2022-07-29T00:40:36;25.40;54.60
17495;DHT22;8864;51.970;4.614;2022-07-29T00:43:03;25.40;54.60
17495;DHT22;8864;51.970;4.614;2022-07-29T00:45:31;25.40;54.60
17495;DHT22;8864;51.970;4.614;2022-07-29T00:47:58;25.40;54.50
17495;DHT22;8864;51.970;4.614;2022-07-29T00:50:25;25.40;54.60
17495;DHT22;8864;51.970;4.614;2022-07-29T00:52:52;25.30;54.50
17495;DHT22;8864;51.970;4.614;2022-07-29T00:55:20;25.40;54.60
17495;DHT22;8864;51.970;4.614;2022-07-29T00:57:47;25.40;54.60
17495;DHT22;8864;51.970;4.614;2022-07-29T01:00:17;25.30;54.50
17495;DHT22;8864;51.970;4.614;2022-07-29T01:02:45;25.30;54.50
17495;DHT22;8864;51.970;4.614;2022-07-29T01:05:14;25.40;54.60
17495;DHT22;8864;51.970;4.614;2022-07-29T01:07:42;25.30;54.50
17495;DHT22;8864;51.970;4.614;2022-07-29T01:10:09;25.40;54.60
17495;DHT22;8864;51.970;4.614;2022-07-29T01:12:39;25.30;54.50
17495;DHT22;8864;51.970;4.614;2022-07-29T01:15:07;25.30;54.50
17495;DHT22;8864;51.970;4.614;2022-07-29T01:17:38;25.30;54.50
17495;DHT22;8864;51.970;4.614;2022-07-29T01:20:14;25.30;54.50
17495;DHT22;8864;51.970;4.614;2022-07-29T01:23:00;25.30;54.50
17495;DHT22;8864;51.970;4.614;2022-07-29T01:28:49;25.30;54.60
17495;DHT22;8864;51.970;4.614;2022-07-29T01:31:22;25.30;54.60
17495;DHT22;8864;51.970;4.614;2022-07-29T01:33:57;25.30;54.60
17495;DHT22;8864;51.970;4.614;2022-07-29T01:36:31;25.30;54.60
17495;DHT22;8864;51.970;4.614;2022-07-29T01:39:02;25.30;54.60
17495;DHT22;8864;51.970;4.614;2022-07-29T01:41:32;25.30;54.60
17495;DHT22;8864;51.970;4.614;2022-07-29T01:44:11;25.30;54.60
17495;DHT22;8864;51.970;4.614;2022-07-29T01:46:44;25.20;54.60
17495;DHT22;8864;51.970;4.614;2022-07-29T01:49:16;25.20;54.50
17495;DHT22;8864;51.970;4.614;2022-07-29T01:51:48;25.20;54.50
17495;DHT22;8864;51.970;4.614;2022-07-29T01:54:21;25.20;54.50
17495;DHT22;8864;51.970;4.614;2022-07-29T01:56:53;25.20;54.50
17495;DHT22;8864;51.970;4.614;2022-07-29T01:59:23;25.20;54.50
17495;DHT22;8864;51.970;4.614;2022-07-29T02:01:54;25.20;54.60
17495;DHT22;8864;51.970;4.614;2022-07-29T02:04:21;25.20;54.50
17495;DHT22;8864;51.970;4.614;2022-07-29T02:06:51;25.20;54.50
17495;DHT22;8864;51.970;4.614;2022-07-29T02:09:19;25.20;54.60
17495;DHT22;8864;51.970;4.614;2022-07-29T02:11:49;25.20;55.20
17495;DHT22;8864;51.970;4.614;2022-07-29T02:14:18;25.20;54.60
17495;DHT22;8864;51.970;4.614;2022-07-29T02:16:47;25.20;54.60
17495;DHT22;8864;51.970;4.614;2022-07-29T02:19:16;25.20;54.60
17495;DHT22;8864;51.970;4.614;2022-07-29T02:21:45;25.20;54.60
17495;DHT22;8864;51.970;4.614;2022-07-29T02:24:13;25.20;54.60
17495;DHT22;8864;51.970;4.614;2022-07-29T02:26:43;25.20;54.60
17495;DHT22;8864;51.970;4.614;2022-07-29T02:29:12;25.20;54.60
17495;DHT22;8864;51.970;4.614;2022-07-29T02:31:41;25.20;54.60
17495;DHT22;8864;51.970;4.614;2022-07-29T02:34:10;25.20;54.60
17495;DHT22;8864;51.970;4.614;2022-07-29T02:36:38;25.20;54.60
17495;DHT22;8864;51.970;4.614;2022-07-29T02:39:07;25.20;54.60
17495;DHT22;8864;51.970;4.614;2022-07-29T02:41:41;25.20;54.60
17495;DHT22;8864;51.970;4.614;2022-07-29T02:44:10;25.20;54.60
17495;DHT22;8864;51.970;4.614;2022-07-29T02:46:43;25.20;54.60
17495;DHT22;8864;51.970;4.614;2022-07-29T02:49:18;25.20;54.60
17495;DHT22;8864;51.970;4.614;2022-07-29T02:51:53;25.20;54.60
17495;DHT22;8864;51.970;4.614;2022-07-29T02:54:26;25.20;54.60
17495;DHT22;8864;51.970;4.614;2022-07-29T02:56:59;25.20;54.60
17495;DHT22;8864;51.970;4.614;2022-07-29T02:59:30;25.20;54.60
17495;DHT22;8864;51.970;4.614;2022-07-29T03:02:02;25.20;54.60
17495;DHT22;8864;51.970;4.614;2022-07-29T03:04:32;25.20;54.60
17495;DHT22;8864;51.970;4.614;2022-07-29T03:07:00;25.20;54.60
17495;DHT22;8864;51.970;4.614;2022-07-29T03:09:28;25.20;54.60
17495;DHT22;8864;51.970;4.614;2022-07-29T03:11:56;25.20;54.60
17495;DHT22;8864;51.970;4.614;2022-07-29T03:14:23;25.20;54.60
17495;DHT22;8864;51.970;4.614;2022-07-29T03:16:51;25.20;54.60
17495;DHT22;8864;51.970;4.614;2022-07-29T03:19:19;25.20;54.60
17495;DHT22;8864;51.970;4.614;2022-07-29T03:21:48;25.20;54.60
17495;DHT22;8864;51.970;4.614;2022-07-29T03:24:29;25.20;54.60
17495;DHT22;8864;51.970;4.614;2022-07-29T03:26:56;25.10;54.60
17495;DHT22;8864;51.970;4.614;2022-07-29T03:29:23;25.10;54.60
17495;DHT22;8864;51.970;4.614;2022-07-29T03:31:51;25.10;54.60
17495;DHT22;8864;51.970;4.614;2022-07-29T03:34:18;25.10;54.60
17495;DHT22;8864;51.970;4.614;2022-07-29T03:36:44;25.10;54.60
17495;DHT22;8864;51.970;4.614;2022-07-29T03:39:16;25.10;54.60
17495;DHT22;8864;51.970;4.614;2022-07-29T03:41:45;25.10;54.60
17495;DHT22;8864;51.970;4.614;2022-07-29T03:44:14;25.10;54.60
17495;DHT22;8864;51.970;4.614;2022-07-29T03:46:43;25.10;54.60
17495;DHT22;8864;51.970;4.614;2022-07-29T03:49:11;25.10;54.60
17495;DHT22;8864;51.970;4.614;2022-07-29T03:51:39;25.10;54.60
17495;DHT22;8864;51.970;4.614;2022-07-29T03:54:06;25.10;54.60
17495;DHT22;8864;51.970;4.614;2022-07-29T03:56:38;25.10;54.60
17495;DHT22;8864;51.970;4.614;2022-07-29T03:59:06;25.10;54.60
17495;DHT22;8864;51.970;4.614;2022-07-29T04:01:34;25.10;54.60
17495;DHT22;8864;51.970;4.614;2022-07-29T04:04:01;25.10;54.60
17495;DHT22;8864;51.970;4.614;2022-07-29T04:06:31;25.10;54.60
17495;DHT22;8864;51.970;4.614;2022-07-29T04:09:03;25.10;54.60
17495;DHT22;8864;51.970;4.614;2022-07-29T04:11:30;25.00;54.50
17495;DHT22;8864;51.970;4.614;2022-07-29T04:13:58;25.10;54.60
17495;DHT22;8864;51.970;4.614;2022-07-29T04:16:25;25.00;54.50
17495;DHT22;8864;51.970;4.614;2022-07-29T04:18:51;25.10;54.60
17495;DHT22;8864;51.970;4.614;2022-07-29T04:21:18;25.00;54.60
17495;DHT22;8864;51.970;4.614;2022-07-29T04:23:45;25.00;54.50
17495;DHT22;8864;51.970;4.614;2022-07-29T04:26:15;25.00;54.50
17495;DHT22;8864;51.970;4.614;2022-07-29T04:28:42;25.10;54.50
17495;DHT22;8864;51.970;4.614;2022-07-29T04:31:10;25.00;54.50
17495;DHT22;8864;51.970;4.614;2022-07-29T04:33:37;25.00;54.50
17495;DHT22;8864;51.970;4.614;2022-07-29T04:36:04;25.00;54.50
17495;DHT22;8864;51.970;4.614;2022-07-29T04:38:31;25.00;54.50
17495;DHT22;8864;51.970;4.614;2022-07-29T04:40:58;25.00;54.50
17495;DHT22;8864;51.970;4.614;2022-07-29T04:43:25;25.00;54.50
17495;DHT22;8864;51.970;4.614;2022-07-29T04:45:51;25.00;54.50
17495;DHT22;8864;51.970;4.614;2022-07-29T04:48:20;25.00;54.50
17495;DHT22;8864;51.970;4.614;2022-07-29T04:50:47;25.00;54.50
17495;DHT22;8864;51.970;4.614;2022-07-29T04:53:13;25.00;54.50
17495;DHT22;8864;51.970;4.614;2022-07-29T04:55:40;25.00;54.50
17495;DHT22;8864;51.970;4.614;2022-07-29T04:58:07;25.00;54.50
17495;DHT22;8864;51.970;4.614;2022-07-29T05:00:34;25.00;54.50
17495;DHT22;8864;51.970;4.614;2022-07-29T05:03:01;25.00;54.50
17495;DHT22;8864;51.970;4.614;2022-07-29T05:05:29;25.00;54.50
17495;DHT22;8864;51.970;4.614;2022-07-29T05:07:56;25.00;54.50
17495;DHT22;8864;51.970;4.614;2022-07-29T05:10:23;25.00;54.50
17495;DHT22;8864;51.970;4.614;2022-07-29T05:12:49;25.00;54.50
17495;DHT22;8864;51.970;4.614;2022-07-29T05:15:16;25.00;54.50
17495;DHT22;8864;51.970;4.614;2022-07-29T05:17:43;25.00;54.50
17495;DHT22;8864;51.970;4.614;2022-07-29T05:20:10;25.00;54.50
17495;DHT22;8864;51.970;4.614;2022-07-29T05:22:38;25.00;54.50
17495;DHT22;8864;51.970;4.614;2022-07-29T05:25:06;25.00;54.50
17495;DHT22;8864;51.970;4.614;2022-07-29T05:27:35;25.00;54.50
17495;DHT22;8864;51.970;4.614;2022-07-29T05:30:02;25.00;54.60
17495;DHT22;8864;51.970;4.614;2022-07-29T05:32:29;25.00;54.50
17495;DHT22;8864;51.970;4.614;2022-07-29T05:34:56;25.00;54.50
17495;DHT22;8864;51.970;4.614;2022-07-29T05:37:22;25.00;54.50
17495;DHT22;8864;51.970;4.614;2022-07-29T05:39:51;25.00;54.50
17495;DHT22;8864;51.970;4.614;2022-07-29T05:42:18;25.00;54.50
17495;DHT22;8864;51.970;4.614;2022-07-29T05:44:46;25.00;54.60
17495;DHT22;8864;51.970;4.614;2022-07-29T05:47:13;25.00;54.50
17495;DHT22;8864;51.970;4.614;2022-07-29T05:49:41;25.00;54.50
17495;DHT22;8864;51.970;4.614;2022-07-29T05:52:08;25.00;54.50
17495;DHT22;8864;51.970;4.614;2022-07-29T05:54:35;25.00;54.60
17495;DHT22;8864;51.970;4.614;2022-07-29T05:57:03;25.00;54.50
17495;DHT22;8864;51.970;4.614;2022-07-29T05:59:30;25.00;54.50
17495;DHT22;8864;51.970;4.614;2022-07-29T06:01:57;25.00;54.60
17495;DHT22;8864;51.970;4.614;2022-07-29T06:04:24;25.00;54.50
17495;DHT22;8864;51.970;4.614;2022-07-29T06:06:51;25.00;54.60
17495;DHT22;8864;51.970;4.614;2022-07-29T06:09:18;25.00;54.50
17495;DHT22;8864;51.970;4.614;2022-07-29T06:11:45;25.00;54.60
17495;DHT22;8864;51.970;4.614;2022-07-29T06:14:13;25.00;54.50
17495;DHT22;8864;51.970;4.614;2022-07-29T06:16:40;25.00;54.50
17495;DHT22;8864;51.970;4.614;2022-07-29T06:19:07;25.00;54.50
17495;DHT22;8864;51.970;4.614;2022-07-29T06:21:34;25.00;54.50
17495;DHT22;8864;51.970;4.614;2022-07-29T06:24:01;25.00;54.50
17495;DHT22;8864;51.970;4.614;2022-07-29T06:26:28;25.00;54.50
17495;DHT22;8864;51.970;4.614;2022-07-29T06:28:54;25.00;54.50
17495;DHT22;8864;51.970;4.614;2022-07-29T06:31:23;25.10;54.60
17495;DHT22;8864;51.970;4.614;2022-07-29T06:33:49;25.10;54.60
17495;DHT22;8864;51.970;4.614;2022-07-29T06:36:16;25.10;54.60
17495;DHT22;8864;51.970;4.614;2022-07-29T06:38:43;25.10;54.50
17495;DHT22;8864;51.970;4.614;2022-07-29T06:41:10;25.10;54.60
17495;DHT22;8864;51.970;4.614;2022-07-29T06:43:39;25.10;54.60
17495;DHT22;8864;51.970;4.614;2022-07-29T06:46:08;25.10;54.60
17495;DHT22;8864;51.970;4.614;2022-07-29T06:48:37;25.10;54.60
17495;DHT22;8864;51.970;4.614;2022-07-29T06:51:04;25.10;54.50
17495;DHT22;8864;51.970;4.614;2022-07-29T06:53:32;25.10;54.60
17495;DHT22;8864;51.970;4.614;2022-07-29T06:56:00;25.10;54.60
17495;DHT22;8864;51.970;4.614;2022-07-29T06:58:28;25.10;54.60
17495;DHT22;8864;51.970;4.614;2022-07-29T07:00:56;25.10;54.60
17495;DHT22;8864;51.970;4.614;2022-07-29T07:03:23;25.10;54.60
17495;DHT22;8864;51.970;4.614;2022-07-29T07:05:52;25.10;54.50
17495;DHT22;8864;51.970;4.614;2022-07-29T07:08:20;25.10;54.50
17495;DHT22;8864;51.970;4.614;2022-07-29T07:10:47;25.10;54.60
17495;DHT22;8864;51.970;4.614;2022-07-29T07:13:15;25.10;54.60
17495;DHT22;8864;51.970;4.614;2022-07-29T07:15:43;25.10;54.60
17495;DHT22;8864;51.970;4.614;2022-07-29T07:18:10;25.10;54.60
17495;DHT22;8864;51.970;4.614;2022-07-29T07:20:37;25.10;54.60
17495;DHT22;8864;51.970;4.614;2022-07-29T07:23:05;25.10;54.60
17495;DHT22;8864;51.970;4.614;2022-07-29T07:25:32;25.10;54.60
17495;DHT22;8864;51.970;4.614;2022-07-29T07:27:59;25.20;54.60
17495;DHT22;8864;51.970;4.614;2022-07-29T07:30:26;25.20;54.60
17495;DHT22;8864;51.970;4.614;2022-07-29T07:32:53;25.20;54.60
17495;DHT22;8864;51.970;4.614;2022-07-29T07:35:20;25.10;54.60
17495;DHT22;8864;51.970;4.614;2022-07-29T07:37:47;25.20;54.70
17495;DHT22;8864;51.970;4.614;2022-07-29T07:40:16;25.20;54.60
17495;DHT22;8864;51.970;4.614;2022-07-29T07:42:42;25.10;54.60
17495;DHT22;8864;51.970;4.614;2022-07-29T07:45:10;25.20;54.70
17495;DHT22;8864;51.970;4.614;2022-07-29T07:47:38;25.20;54.70
17495;DHT22;8864;51.970;4.614;2022-07-29T07:50:07;25.20;54.70
17495;DHT22;8864;51.970;4.614;2022-07-29T07:52:34;25.20;54.70
17495;DHT22;8864;51.970;4.614;2022-07-29T07:55:01;25.20;54.60
17495;DHT22;8864;51.970;4.614;2022-07-29T07:57:29;25.20;54.60
17495;DHT22;8864;51.970;4.614;2022-07-29T07:59:56;25.20;54.70
17495;DHT22;8864;51.970;4.614;2022-07-29T08:02:23;25.20;54.60
17495;DHT22;8864;51.970;4.614;2022-07-29T08:04:50;25.20;54.60
17495;DHT22;8864;51.970;4.614;2022-07-29T08:07:16;25.20;54.60
17495;DHT22;8864;51.970;4.614;2022-07-29T08:09:43;25.20;55.30
17495;DHT22;8864;51.970;4.614;2022-07-29T08:12:10;25.20;54.60
17495;DHT22;8864;51.970;4.614;2022-07-29T08:14:38;25.20;54.60
17495;DHT22;8864;51.970;4.614;2022-07-29T08:17:05;25.20;54.60
17495;DHT22;8864;51.970;4.614;2022-07-29T08:19:32;25.20;54.50
17495;DHT22;8864;51.970;4.614;2022-07-29T08:21:58;25.20;54.60
17495;DHT22;8864;51.970;4.614;2022-07-29T08:24:25;25.20;54.50
17495;DHT22;8864;51.970;4.614;2022-07-29T08:27:18;25.20;54.50
17495;DHT22;8864;51.970;4.614;2022-07-29T08:29:47;25.30;54.60
17495;DHT22;8864;51.970;4.614;2022-07-29T08:32:14;25.20;54.50
17495;DHT22;8864;51.970;4.614;2022-07-29T08:34:41;25.30;54.60
17495;DHT22;8864;51.970;4.614;2022-07-29T08:37:09;25.30;54.60
17495;DHT22;8864;51.970;4.614;2022-07-29T08:39:36;25.30;54.60
17495;DHT22;8864;51.970;4.614;2022-07-29T08:42:03;25.30;54.60
17495;DHT22;8864;51.970;4.614;2022-07-29T08:44:31;25.30;54.60
17495;DHT22;8864;51.970;4.614;2022-07-29T08:47:00;25.30;54.60
17495;DHT22;8864;51.970;4.614;2022-07-29T08:49:27;25.30;54.60
17495;DHT22;8864;51.970;4.614;2022-07-29T08:51:55;25.30;54.60
17495;DHT22;8864;51.970;4.614;2022-07-29T08:54:23;25.30;54.60
17495;DHT22;8864;51.970;4.614;2022-07-29T08:56:50;25.30;54.60
17495;DHT22;8864;51.970;4.614;2022-07-29T08:59:19;25.30;54.60
17495;DHT22;8864;51.970;4.614;2022-07-29T09:01:48;25.30;54.70
17495;DHT22;8864;51.970;4.614;2022-07-29T09:04:19;25.30;54.70
17495;DHT22;8864;51.970;4.614;2022-07-29T09:06:48;25.40;54.70
17495;DHT22;8864;51.970;4.614;2022-07-29T09:09:15;25.50;54.70
17495;DHT22;8864;51.970;4.614;2022-07-29T09:11:43;25.40;54.70
17495;DHT22;8864;51.970;4.614;2022-07-29T09:14:12;25.40;54.70
17495;DHT22;8864;51.970;4.614;2022-07-29T09:16:47;25.40;54.60
17495;DHT22;8864;51.970;4.614;2022-07-29T09:19:27;25.40;54.60
17495;DHT22;8864;51.970;4.614;2022-07-29T09:21:55;25.40;54.60
17495;DHT22;8864;51.970;4.614;2022-07-29T09:24:37;25.50;54.60
17495;DHT22;8864;51.970;4.614;2022-07-29T09:27:18;25.50;54.50
17495;DHT22;8864;51.970;4.614;2022-07-29T09:29:46;25.50;54.60
17495;DHT22;8864;51.970;4.614;2022-07-29T09:32:13;25.50;55.20
17495;DHT22;8864;51.970;4.614;2022-07-29T09:34:41;25.50;54.50
17495;DHT22;8864;51.970;4.614;2022-07-29T09:37:08;25.50;54.50
17495;DHT22;8864;51.970;4.614;2022-07-29T09:39:36;25.50;54.50
17495;DHT22;8864;51.970;4.614;2022-07-29T09:42:04;25.50;54.50
17495;DHT22;8864;51.970;4.614;2022-07-29T09:44:43;25.50;54.50
17495;DHT22;8864;51.970;4.614;2022-07-29T09:47:10;25.50;54.50
17495;DHT22;8864;51.970;4.614;2022-07-29T09:49:53;25.50;54.50
17495;DHT22;8864;51.970;4.614;2022-07-29T09:52:23;25.50;54.50
17495;DHT22;8864;51.970;4.614;2022-07-29T09:54:50;25.50;54.50
17495;DHT22;8864;51.970;4.614;2022-07-29T09:57:24;25.50;54.50
17495;DHT22;8864;51.970;4.614;2022-07-29T09:59:57;25.50;54.60
17495;DHT22;8864;51.970;4.614;2022-07-29T10:02:28;25.50;54.50
17495;DHT22;8864;51.970;4.614;2022-07-29T10:04:58;25.50;54.50
17495;DHT22;8864;51.970;4.614;2022-07-29T10:07:25;25.60;54.60
17495;DHT22;8864;51.970;4.614;2022-07-29T10:09:53;25.60;54.60
17495;DHT22;8864;51.970;4.614;2022-07-29T10:12:21;25.60;54.60
17495;DHT22;8864;51.970;4.614;2022-07-29T10:14:48;25.60;54.60
17495;DHT22;8864;51.970;4.614;2022-07-29T10:17:16;25.60;54.60
17495;DHT22;8864;51.970;4.614;2022-07-29T10:19:43;25.60;54.60
17495;DHT22;8864;51.970;4.614;2022-07-29T10:22:11;25.60;54.60
17495;DHT22;8864;51.970;4.614;2022-07-29T10:24:38;25.60;54.60
17495;DHT22;8864;51.970;4.614;2022-07-29T10:27:07;25.60;54.60
17495;DHT22;8864;51.970;4.614;2022-07-29T10:29:34;25.60;54.60
17495;DHT22;8864;51.970;4.614;2022-07-29T10:32:22;25.60;54.60
17495;DHT22;8864;51.970;4.614;2022-07-29T10:35:19;25.60;54.60
17495;DHT22;8864;51.970;4.614;2022-07-29T10:38:07;25.60;54.60
17495;DHT22;8864;51.970;4.614;2022-07-29T10:40:52;25.60;54.60
17495;DHT22;8864;51.970;4.614;2022-07-29T10:43:42;25.60;54.60
17495;DHT22;8864;51.970;4.614;2022-07-29T10:46:10;25.60;54.60
17495;DHT22;8864;51.970;4.614;2022-07-29T10:49:05;25.60;54.60
17495;DHT22;8864;51.970;4.614;2022-07-29T10:51:51;25.60;54.60
17495;DHT22;8864;51.970;4.614;2022-07-29T10:57:26;25.60;54.60
17495;DHT22;8864;51.970;4.614;2022-07-29T11:00:26;25.60;54.70
17495;DHT22;8864;51.970;4.614;2022-07-29T11:02:53;25.60;54.70
17495;DHT22;8864;51.970;4.614;2022-07-29T11:05:23;25.60;54.70
17495;DHT22;8864;51.970;4.614;2022-07-29T11:14:05;25.60;54.70
17495;DHT22;8864;51.970;4.614;2022-07-29T11:17:00;25.60;54.70
17495;DHT22;8864;51.970;4.614;2022-07-29T11:19:28;25.60;54.70
17495;DHT22;8864;51.970;4.614;2022-07-29T11:21:56;25.60;54.70
17495;DHT22;8864;51.970;4.614;2022-07-29T11:24:24;25.60;54.70
17495;DHT22;8864;51.970;4.614;2022-07-29T11:27:23;25.60;54.70
17495;DHT22;8864;51.970;4.614;2022-07-29T11:29:58;25.60;54.70
17495;DHT22;8864;51.970;4.614;2022-07-29T11:32:36;25.60;54.70
17495;DHT22;8864;51.970;4.614;2022-07-29T11:35:21;25.70;54.70
17495;DHT22;8864;51.970;4.614;2022-07-29T11:38:24;25.70;54.80
17495;DHT22;8864;51.970;4.614;2022-07-29T11:41:19;25.70;54.70
17495;DHT22;8864;51.970;4.614;2022-07-29T11:43:46;25.70;54.70
17495;DHT22;8864;51.970;4.614;2022-07-29T11:46:15;25.70;54.70
17495;DHT22;8864;51.970;4.614;2022-07-29T11:48:43;25.70;54.70
17495;DHT22;8864;51.970;4.614;2022-07-29T11:51:11;25.70;54.70
17495;DHT22;8864;51.970;4.614;2022-07-29T11:53:39;25.70;54.70
17495;DHT22;8864;51.970;4.614;2022-07-29T11:56:08;25.70;54.70
17495;DHT22;8864;51.970;4.614;2022-07-29T11:58:35;25.70;54.70
17495;DHT22;8864;51.970;4.614;2022-07-29T12:01:02;25.70;54.60
17495;DHT22;8864;51.970;4.614;2022-07-29T12:03:31;25.70;54.60
17495;DHT22;8864;51.970;4.614;2022-07-29T12:05:59;25.80;54.70
17495;DHT22;8864;51.970;4.614;2022-07-29T12:08:26;25.80;54.70
17495;DHT22;8864;51.970;4.614;2022-07-29T12:10:53;25.80;54.70
17495;DHT22;8864;51.970;4.614;2022-07-29T12:13:20;25.80;54.60
17495;DHT22;8864;51.970;4.614;2022-07-29T12:15:54;25.80;54.60
17495;DHT22;8864;51.970;4.614;2022-07-29T12:18:23;25.80;54.60
17495;DHT22;8864;51.970;4.614;2022-07-29T12:20:58;25.80;54.60
17495;DHT22;8864;51.970;4.614;2022-07-29T12:23:25;25.80;54.60
17495;DHT22;8864;51.970;4.614;2022-07-29T12:25:52;25.80;54.60
17495;DHT22;8864;51.970;4.614;2022-07-29T12:28:19;25.80;54.50
17495;DHT22;8864;51.970;4.614;2022-07-29T12:30:48;25.80;54.50
17495;DHT22;8864;51.970;4.614;2022-07-29T12:33:20;25.90;54.50
17495;DHT22;8864;51.970;4.614;2022-07-29T12:35:50;25.90;54.50
17495;DHT22;8864;51.970;4.614;2022-07-29T12:38:19;25.90;54.50
17495;DHT22;8864;51.970;4.614;2022-07-29T12:40:47;25.90;54.50
17495;DHT22;8864;51.970;4.614;2022-07-29T12:43:17;25.90;54.50
17495;DHT22;8864;51.970;4.614;2022-07-29T12:45:45;25.90;54.50
17495;DHT22;8864;51.970;4.614;2022-07-29T12:48:13;25.90;54.40
17495;DHT22;8864;51.970;4.614;2022-07-29T12:50:54;25.90;54.40
17495;DHT22;8864;51.970;4.614;2022-07-29T12:53:23;26.00;54.40
17495;DHT22;8864;51.970;4.614;2022-07-29T12:55:51;26.00;54.40
17495;DHT22;8864;51.970;4.614;2022-07-29T12:58:29;26.00;54.40
17495;DHT22;8864;51.970;4.614;2022-07-29T13:01:08;26.00;54.40
17495;DHT22;8864;51.970;4.614;2022-07-29T13:03:44;26.00;54.40
17495;DHT22;8864;51.970;4.614;2022-07-29T13:06:29;26.00;54.30
17495;DHT22;8864;51.970;4.614;2022-07-29T13:09:04;26.10;54.40
17495;DHT22;8864;51.970;4.614;2022-07-29T13:11:33;26.10;54.40
17495;DHT22;8864;51.970;4.614;2022-07-29T13:14:00;26.10;54.40
17495;DHT22;8864;51.970;4.614;2022-07-29T13:16:27;26.10;54.40
17495;DHT22;8864;51.970;4.614;2022-07-29T13:19:18;26.10;54.40
17495;DHT22;8864;51.970;4.614;2022-07-29T13:21:45;26.10;54.30
17495;DHT22;8864;51.970;4.614;2022-07-29T13:24:13;26.10;54.30
17495;DHT22;8864;51.970;4.614;2022-07-29T13:26:40;26.10;54.20
17495;DHT22;8864;51.970;4.614;2022-07-29T13:29:07;26.10;54.30
17495;DHT22;8864;51.970;4.614;2022-07-29T13:31:34;26.10;54.20
17495;DHT22;8864;51.970;4.614;2022-07-29T13:34:00;26.20;54.30
17495;DHT22;8864;51.970;4.614;2022-07-29T13:36:27;26.20;54.20
17495;DHT22;8864;51.970;4.614;2022-07-29T13:38:55;26.20;54.20
17495;DHT22;8864;51.970;4.614;2022-07-29T13:41:23;26.20;54.20
17495;DHT22;8864;51.970;4.614;2022-07-29T13:43:49;26.20;54.20
17495;DHT22;8864;51.970;4.614;2022-07-29T13:46:16;26.20;54.20
17495;DHT22;8864;51.970;4.614;2022-07-29T13:48:43;26.30;54.20
17495;DHT22;8864;51.970;4.614;2022-07-29T13:51:10;26.20;54.10
17495;DHT22;8864;51.970;4.614;2022-07-29T13:53:36;26.30;54.20
17495;DHT22;8864;51.970;4.614;2022-07-29T13:56:04;26.30;54.10
17495;DHT22;8864;51.970;4.614;2022-07-29T13:58:33;26.30;54.10
17495;DHT22;8864;51.970;4.614;2022-07-29T14:01:00;26.30;54.10
17495;DHT22;8864;51.970;4.614;2022-07-29T14:03:27;26.30;54.10
17495;DHT22;8864;51.970;4.614;2022-07-29T14:05:54;26.30;54.10
17495;DHT22;8864;51.970;4.614;2022-07-29T14:08:21;26.30;54.00
17495;DHT22;8864;51.970;4.614;2022-07-29T14:10:48;26.30;54.00
17495;DHT22;8864;51.970;4.614;2022-07-29T14:13:15;26.40;54.10
17495;DHT22;8864;51.970;4.614;2022-07-29T14:15:43;26.40;54.10
17495;DHT22;8864;51.970;4.614;2022-07-29T14:18:13;26.40;54.00
17495;DHT22;8864;51.970;4.614;2022-07-29T14:20:39;26.40;54.00
17495;DHT22;8864;51.970;4.614;2022-07-29T14:23:06;26.40;54.00
17495;DHT22;8864;51.970;4.614;2022-07-29T14:25:33;26.40;53.90
17495;DHT22;8864;51.970;4.614;2022-07-29T14:28:00;26.50;54.00
17495;DHT22;8864;51.970;4.614;2022-07-29T14:30:27;26.50;54.00
17495;DHT22;8864;51.970;4.614;2022-07-29T14:32:55;26.50;53.90
17495;DHT22;8864;51.970;4.614;2022-07-29T14:35:22;26.50;54.00
17495;DHT22;8864;51.970;4.614;2022-07-29T14:37:48;26.50;53.90
17495;DHT22;8864;51.970;4.614;2022-07-29T14:40:15;26.50;53.90
17495;DHT22;8864;51.970;4.614;2022-07-29T14:42:42;26.50;53.90
17495;DHT22;8864;51.970;4.614;2022-07-29T14:45:09;26.60;53.90
17495;DHT22;8864;51.970;4.614;2022-07-29T14:47:36;26.60;53.90
17495;DHT22;8864;51.970;4.614;2022-07-29T14:50:06;26.60;53.90
17495;DHT22;8864;51.970;4.614;2022-07-29T14:52:33;26.60;53.80
17495;DHT22;8864;51.970;4.614;2022-07-29T14:55:00;26.60;53.80
17495;DHT22;8864;51.970;4.614;2022-07-29T14:57:27;26.60;53.80
17495;DHT22;8864;51.970;4.614;2022-07-29T14:59:54;26.60;53.80
17495;DHT22;8864;51.970;4.614;2022-07-29T15:02:21;26.60;53.80
17495;DHT22;8864;51.970;4.614;2022-07-29T15:04:48;26.60;53.80
17495;DHT22;8864;51.970;4.614;2022-07-29T15:07:16;26.60;53.80
17495;DHT22;8864;51.970;4.614;2022-07-29T15:09:43;26.60;53.80
17495;DHT22;8864;51.970;4.614;2022-07-29T15:12:10;26.60;53.70
17495;DHT22;8864;51.970;4.614;2022-07-29T15:14:37;26.70;53.70
17495;DHT22;8864;51.970;4.614;2022-07-29T15:17:04;26.70;53.80
17495;DHT22;8864;51.970;4.614;2022-07-29T15:19:31;26.60;53.70
17495;DHT22;8864;51.970;4.614;2022-07-29T15:21:58;26.70;53.70
17495;DHT22;8864;51.970;4.614;2022-07-29T15:24:26;26.70;53.70
17495;DHT22;8864;51.970;4.614;2022-07-29T15:26:53;26.70;53.70
17495;DHT22;8864;51.970;4.614;2022-07-29T15:29:20;26.70;53.70
17495;DHT22;8864;51.970;4.614;2022-07-29T15:31:46;26.70;53.60
17495;DHT22;8864;51.970;4.614;2022-07-29T15:34:13;26.70;53.60
17495;DHT22;8864;51.970;4.614;2022-07-29T15:36:40;26.70;53.60
17495;DHT22;8864;51.970;4.614;2022-07-29T15:39:07;26.70;53.60
17495;DHT22;8864;51.970;4.614;2022-07-29T15:41:36;26.80;53.60
17495;DHT22;8864;51.970;4.614;2022-07-29T15:44:03;26.80;53.60
17495;DHT22;8864;51.970;4.614;2022-07-29T15:46:30;26.80;53.60
17495;DHT22;8864;51.970;4.614;2022-07-29T15:49:14;26.80;53.60
17495;DHT22;8864;51.970;4.614;2022-07-29T15:51:41;26.80;53.60
17495;DHT22;8864;51.970;4.614;2022-07-29T15:54:07;26.80;53.50
17495;DHT22;8864;51.970;4.614;2022-07-29T15:56:35;26.80;53.60
17495;DHT22;8864;51.970;4.614;2022-07-29T15:59:03;26.80;53.60
17495;DHT22;8864;51.970;4.614;2022-07-29T16:01:30;26.80;53.50
17495;DHT22;8864;51.970;4.614;2022-07-29T16:03:57;26.80;53.50
17495;DHT22;8864;51.970;4.614;2022-07-29T16:06:23;26.80;53.50
17495;DHT22;8864;51.970;4.614;2022-07-29T16:08:50;26.90;53.50
17495;DHT22;8864;51.970;4.614;2022-07-29T16:11:20;26.90;53.50